createdAt,value
2019-03-16T00:01:31.529Z,6.60
2019-03-16T00:04:02.125Z,6.60
2019-03-16T00:06:32.780Z,6.60
2019-03-16T00:09:04.217Z,6.60
2019-03-16T00:11:35.329Z,6.50
2019-03-16T00:14:06.001Z,6.50
2019-03-16T00:16:36.759Z,6.50
2019-03-16T00:19:07.765Z,6.40
2019-03-16T00:21:39.707Z,6.40
2019-03-16T00:24:10.521Z,6.40
2019-03-16T00:26:41.566Z,6.40
2019-03-16T00:29:12.302Z,6.40
2019-03-16T00:31:42.952Z,6.40
2019-03-16T00:34:14.463Z,6.40
2019-03-16T00:36:45.342Z,6.40
2019-03-16T00:39:16.020Z,6.40
2019-03-16T00:41:46.678Z,6.30
2019-03-16T00:44:17.393Z,6.40
2019-03-16T00:46:48.117Z,6.40
2019-03-16T00:49:19.029Z,6.30
2019-03-16T00:51:49.678Z,6.30
2019-03-16T00:54:20.308Z,6.20
2019-03-16T00:56:51.003Z,6.30
2019-03-16T00:59:21.637Z,6.20
2019-03-16T01:01:52.249Z,6.20
2019-03-16T01:04:23.021Z,6.20
2019-03-16T01:06:53.684Z,6.20
2019-03-16T01:09:25.985Z,6.20
2019-03-16T01:11:56.706Z,6.10
2019-03-16T01:14:27.383Z,6.20
2019-03-16T01:16:58.198Z,6.10
2019-03-16T01:19:29.551Z,6.20
2019-03-16T01:22:00.423Z,6.20
2019-03-16T01:24:31.132Z,6.10
2019-03-16T01:27:01.764Z,6.10
2019-03-16T01:29:32.445Z,6.20
2019-03-16T01:32:03.186Z,6.10
2019-03-16T01:34:33.831Z,6.10
2019-03-16T01:37:04.579Z,6.10
2019-03-16T01:39:35.217Z,6.10
2019-03-16T01:42:05.869Z,6.10
2019-03-16T01:44:36.590Z,6.10
2019-03-16T01:47:07.236Z,6.10
2019-03-16T01:49:37.906Z,6.10
2019-03-16T01:52:08.549Z,6.10
2019-03-16T01:54:41.217Z,6.10
2019-03-16T01:57:11.887Z,6.10
2019-03-16T01:59:42.800Z,6.10
2019-03-16T02:02:13.523Z,6.00
2019-03-16T02:04:44.369Z,6.00
2019-03-16T02:07:15.475Z,6.00
2019-03-16T02:09:46.470Z,6.00
2019-03-16T02:12:17.092Z,6.00
2019-03-16T02:14:47.800Z,6.00
2019-03-16T02:17:19.031Z,6.00
2019-03-16T02:19:49.683Z,5.90
2019-03-16T02:22:20.729Z,6.00
2019-03-16T02:24:51.352Z,5.90
2019-03-16T02:27:22.007Z,6.00
2019-03-16T02:29:52.654Z,5.90
2019-03-16T02:32:23.308Z,5.80
2019-03-16T02:34:53.951Z,5.80
2019-03-16T02:37:24.642Z,5.90
2019-03-16T02:39:55.625Z,5.80
2019-03-16T02:42:26.385Z,5.80
2019-03-16T02:44:57.006Z,5.80
2019-03-16T02:47:27.617Z,5.80
2019-03-16T02:49:58.274Z,5.80
2019-03-16T02:52:28.939Z,5.80
2019-03-16T02:54:59.825Z,5.80
2019-03-16T02:57:30.446Z,5.80
2019-03-16T03:00:01.156Z,5.90
2019-03-16T03:02:31.785Z,5.90
2019-03-16T03:05:02.425Z,5.90
2019-03-16T03:07:33.036Z,6.00
2019-03-16T03:10:03.729Z,6.00
2019-03-16T03:12:34.382Z,6.00
2019-03-16T03:15:05.468Z,6.00
2019-03-16T03:17:36.111Z,6.10
2019-03-16T03:20:07.296Z,6.10
2019-03-16T03:22:38.052Z,6.10
2019-03-16T03:25:08.930Z,6.20
2019-03-16T03:27:40.625Z,6.20
2019-03-16T03:30:11.763Z,6.10
2019-03-16T03:32:42.644Z,6.10
2019-03-16T03:35:13.537Z,6.10
2019-03-16T03:37:44.209Z,6.10
2019-03-16T03:40:15.420Z,6.10
2019-03-16T03:42:46.109Z,6.10
2019-03-16T03:45:16.771Z,6.00
2019-03-16T03:47:47.628Z,6.00
2019-03-16T03:50:18.646Z,6.00
2019-03-16T03:52:49.260Z,6.00
2019-03-16T03:55:20.005Z,6.10
2019-03-16T03:57:50.939Z,6.00
2019-03-16T04:00:21.666Z,6.00
2019-03-16T04:02:52.842Z,6.00
2019-03-16T04:05:23.421Z,6.00
2019-03-16T04:07:54.134Z,6.00
2019-03-16T04:10:24.799Z,6.00
2019-03-16T04:12:55.456Z,6.00
2019-03-16T04:15:26.143Z,6.00
2019-03-16T04:17:56.757Z,6.00
2019-03-16T04:20:27.389Z,5.90
2019-03-16T04:22:58.060Z,5.90
2019-03-16T04:25:28.803Z,5.90
2019-03-16T04:27:59.582Z,5.90
2019-03-16T04:30:30.253Z,5.90
2019-03-16T04:33:01.020Z,5.90
2019-03-16T04:35:31.701Z,5.90
2019-03-16T04:38:02.290Z,5.80
2019-03-16T04:40:32.957Z,5.80
2019-03-16T04:43:03.607Z,5.80
2019-03-16T04:45:34.245Z,5.80
2019-03-16T04:48:04.905Z,5.70
2019-03-16T04:50:35.534Z,5.80
2019-03-16T04:53:06.173Z,5.90
2019-03-16T04:55:36.822Z,5.80
2019-03-16T04:58:07.486Z,5.80
2019-03-16T05:00:38.107Z,5.80
2019-03-16T05:03:08.844Z,5.80
2019-03-16T05:05:39.493Z,5.80
2019-03-16T05:08:10.143Z,5.90
2019-03-16T05:10:40.793Z,5.80
2019-03-16T05:13:11.402Z,5.80
2019-03-16T05:15:43.134Z,5.80
2019-03-16T05:18:13.788Z,5.70
2019-03-16T05:20:44.432Z,5.70
2019-03-16T05:23:15.061Z,5.60
2019-03-16T05:25:45.682Z,5.60
2019-03-16T05:28:17.108Z,5.60
2019-03-16T05:30:48.564Z,5.70
2019-03-16T05:33:19.455Z,5.70
2019-03-16T05:35:50.642Z,5.70
2019-03-16T05:38:21.293Z,5.70
2019-03-16T05:40:55.062Z,5.70
2019-03-16T05:43:25.722Z,5.70
2019-03-16T05:45:56.368Z,5.70
2019-03-16T05:48:27.002Z,5.70
2019-03-16T05:50:57.739Z,5.60
2019-03-16T05:53:28.371Z,5.70
2019-03-16T05:55:59.163Z,5.70
2019-03-16T05:58:29.766Z,5.70
2019-03-16T06:01:00.442Z,5.70
2019-03-16T06:03:31.075Z,5.70
2019-03-16T06:06:01.832Z,5.90
2019-03-16T06:08:32.579Z,5.90
2019-03-16T06:11:03.864Z,6.00
2019-03-16T06:13:34.492Z,6.00
2019-03-16T06:16:05.201Z,6.10
2019-03-16T06:18:39.256Z,6.20
2019-03-16T06:21:10.112Z,6.30
2019-03-16T06:23:41.003Z,6.20
2019-03-16T06:26:11.674Z,6.20
2019-03-16T06:28:42.346Z,6.30
2019-03-16T06:31:13.011Z,6.30
2019-03-16T06:33:44.215Z,6.30
2019-03-16T06:36:15.057Z,6.30
2019-03-16T06:38:46.109Z,6.40
2019-03-16T06:41:16.836Z,6.50
2019-03-16T06:43:47.453Z,6.50
2019-03-16T06:46:19.728Z,6.70
2019-03-16T06:48:50.696Z,6.70
2019-03-16T06:51:21.363Z,6.70
2019-03-16T06:53:52.854Z,6.70
2019-03-16T06:56:23.496Z,6.80
2019-03-16T06:58:54.333Z,6.90
2019-03-16T07:01:25.040Z,6.90
2019-03-16T07:03:56.207Z,7.00
2019-03-16T07:06:26.858Z,7.00
2019-03-16T07:08:58.007Z,7.00
2019-03-16T07:11:29.899Z,6.80
2019-03-16T07:14:00.566Z,6.80
2019-03-16T07:16:31.343Z,6.90
2019-03-16T07:19:02.015Z,6.80
2019-03-16T07:21:33.211Z,6.90
2019-03-16T07:24:03.862Z,6.90
2019-03-16T07:26:34.483Z,6.90
2019-03-16T07:29:05.137Z,6.90
2019-03-16T07:31:35.861Z,7.10
2019-03-16T07:34:06.548Z,7.00
2019-03-16T07:36:37.585Z,7.00
2019-03-16T07:39:09.118Z,7.20
2019-03-16T07:41:40.014Z,7.30
2019-03-16T07:44:10.761Z,7.70
2019-03-16T07:46:41.435Z,7.80
2019-03-16T07:49:12.093Z,7.70
2019-03-16T07:51:43.371Z,7.70
2019-03-16T07:54:14.053Z,7.70
2019-03-16T07:56:44.847Z,7.80
2019-03-16T07:59:15.489Z,7.80
2019-03-16T08:01:46.221Z,7.80
2019-03-16T08:04:17.169Z,7.70
2019-03-16T08:06:47.964Z,7.80
2019-03-16T08:09:19.879Z,7.90
2019-03-16T08:11:50.798Z,8.10
2019-03-16T08:14:21.481Z,8.40
2019-03-16T08:16:52.389Z,8.40
2019-03-16T08:19:23.411Z,8.50
2019-03-16T08:21:54.086Z,8.60
2019-03-16T08:24:24.902Z,8.30
2019-03-16T08:26:55.680Z,8.30
2019-03-16T08:29:27.671Z,8.40
2019-03-16T08:31:59.201Z,8.60
2019-03-16T08:34:29.867Z,8.60
2019-03-16T08:37:01.415Z,8.70
2019-03-16T08:39:32.082Z,8.40
2019-03-16T08:42:02.730Z,8.50
2019-03-16T08:44:33.533Z,8.70
2019-03-16T08:47:04.242Z,8.80
2019-03-16T08:49:34.993Z,8.70
2019-03-16T08:52:05.773Z,8.80
2019-03-16T08:54:36.519Z,8.60
2019-03-16T08:57:07.246Z,8.70
2019-03-16T08:59:38.017Z,9.00
2019-03-16T09:02:09.243Z,9.10
2019-03-16T09:04:39.978Z,8.80
2019-03-16T09:07:10.706Z,9.00
2019-03-16T09:09:42.366Z,8.80
2019-03-16T09:12:12.996Z,8.70
2019-03-16T09:14:43.696Z,9.00
2019-03-16T09:17:14.354Z,9.10
2019-03-16T09:19:45.031Z,9.30
2019-03-16T09:22:15.975Z,8.90
2019-03-16T09:24:46.608Z,8.90
2019-03-16T09:27:17.297Z,9.20
2019-03-16T09:29:48.878Z,9.40
2019-03-16T09:32:19.490Z,9.20
2019-03-16T09:34:50.233Z,9.20
2019-03-16T09:37:21.762Z,9.10
2019-03-16T09:39:52.446Z,9.20
2019-03-16T09:42:23.108Z,8.90
2019-03-16T09:44:53.761Z,8.80
2019-03-16T09:47:24.996Z,8.80
2019-03-16T09:49:55.677Z,8.80
2019-03-16T09:52:26.400Z,9.00
2019-03-16T09:54:57.131Z,8.90
2019-03-16T09:57:27.740Z,8.60
2019-03-16T09:59:58.800Z,8.80
2019-03-16T10:02:30.841Z,8.80
2019-03-16T10:05:03.086Z,8.70
2019-03-16T10:07:33.768Z,8.70
2019-03-16T10:10:05.754Z,8.70
2019-03-16T10:12:36.437Z,9.00
2019-03-16T10:15:08.388Z,9.10
2019-03-16T10:17:39.106Z,9.00
2019-03-16T10:20:09.806Z,8.80
2019-03-16T10:22:40.525Z,9.10
2019-03-16T10:25:11.500Z,9.30
2019-03-16T10:27:44.851Z,9.20
2019-03-16T10:30:23.135Z,9.20
2019-03-16T10:33:02.473Z,9.40
2019-03-16T10:35:36.108Z,9.70
2019-03-16T10:38:07.655Z,9.80
2019-03-16T10:40:38.353Z,9.80
2019-03-16T10:43:09.117Z,9.70
2019-03-16T10:45:41.876Z,9.60
2019-03-16T10:48:12.431Z,9.90
2019-03-16T10:50:43.350Z,9.90
2019-03-16T10:53:14.048Z,9.90
2019-03-16T10:55:44.714Z,10.10
2019-03-16T10:58:15.471Z,9.40
2019-03-16T11:00:46.440Z,9.20
2019-03-16T11:03:17.064Z,9.10
2019-03-16T11:05:47.763Z,9.10
2019-03-16T11:08:18.568Z,9.20
2019-03-16T11:10:49.206Z,9.40
2019-03-16T11:13:20.649Z,9.40
2019-03-16T11:15:51.491Z,9.20
2019-03-16T11:18:22.169Z,9.10
2019-03-16T11:20:52.904Z,9.10
2019-03-16T11:23:23.594Z,9.30
2019-03-16T11:25:55.925Z,9.40
2019-03-16T11:28:26.778Z,9.10
2019-03-16T11:31:02.352Z,9.10
2019-03-16T11:33:48.402Z,9.10
2019-03-16T11:36:28.286Z,9.30
2019-03-16T11:39:09.761Z,9.50
2019-03-16T11:41:52.091Z,9.30
2019-03-16T11:44:32.378Z,9.00
2019-03-16T11:47:03.240Z,9.00
2019-03-16T11:49:44.632Z,9.20
2019-03-16T11:52:15.875Z,9.20
2019-03-16T11:54:54.014Z,9.10
2019-03-16T11:57:24.690Z,9.20
2019-03-16T11:59:55.451Z,9.10
2019-03-16T12:02:27.255Z,9.10
2019-03-16T12:04:57.925Z,9.10
2019-03-16T12:07:28.609Z,9.00
2019-03-16T12:10:01.179Z,8.90
2019-03-16T12:12:31.856Z,8.90
2019-03-16T12:15:04.004Z,8.70
2019-03-16T12:17:35.112Z,8.60
2019-03-16T12:20:08.798Z,8.70
2019-03-16T12:22:39.576Z,8.70
2019-03-16T12:25:11.897Z,8.80
2019-03-16T12:27:45.190Z,8.90
2019-03-16T12:30:20.877Z,8.90
2019-03-16T12:32:52.561Z,8.90
2019-03-16T12:35:23.593Z,9.10
2019-03-16T12:37:54.358Z,9.20
2019-03-16T12:40:25.347Z,8.80
2019-03-16T12:42:56.393Z,8.60
2019-03-16T12:45:27.098Z,8.50
2019-03-16T12:47:57.834Z,8.10
2019-03-16T12:50:28.570Z,7.70
2019-03-16T12:52:59.950Z,7.30
2019-03-16T12:55:30.680Z,7.20
2019-03-16T12:58:01.444Z,7.10
2019-03-16T13:00:32.214Z,7.10
2019-03-16T13:03:03.278Z,6.90
2019-03-16T13:05:34.020Z,6.90
2019-03-16T13:08:04.836Z,7.20
2019-03-16T13:10:35.649Z,7.20
2019-03-16T13:13:06.652Z,7.00
2019-03-16T13:15:37.632Z,7.10
2019-03-16T13:18:08.398Z,7.10
2019-03-16T13:20:39.176Z,7.30
2019-03-16T13:23:10.035Z,7.30
2019-03-16T13:25:40.819Z,7.20
2019-03-16T13:28:13.118Z,7.10
2019-03-16T13:30:44.990Z,7.10
2019-03-16T13:33:17.629Z,7.10
2019-03-16T13:35:48.448Z,7.00
2019-03-16T13:38:19.558Z,6.80
2019-03-16T13:40:50.305Z,6.80
2019-03-16T13:43:22.270Z,6.70
2019-03-16T13:45:53.154Z,6.60
2019-03-16T13:48:23.987Z,6.70
2019-03-16T13:50:54.730Z,6.60
2019-03-16T13:53:25.554Z,6.60
2019-03-16T13:55:56.799Z,6.40
2019-03-16T13:58:27.713Z,6.50
2019-03-16T14:00:58.423Z,6.40
2019-03-16T14:03:29.275Z,6.30
2019-03-16T14:06:00.422Z,6.30
2019-03-16T14:08:31.075Z,6.20
2019-03-16T14:11:01.884Z,6.30
2019-03-16T14:13:32.963Z,6.30
2019-03-16T14:16:03.685Z,6.20
2019-03-16T14:18:34.327Z,6.10
2019-03-16T14:21:04.985Z,5.90
2019-03-16T14:23:35.664Z,5.90
2019-03-16T14:26:07.003Z,6.20
2019-03-16T14:28:38.090Z,6.20
2019-03-16T14:31:08.783Z,6.20
2019-03-16T14:33:40.530Z,6.20
2019-03-16T14:36:11.611Z,6.40
2019-03-16T14:38:42.788Z,6.50
2019-03-16T14:41:13.556Z,6.30
2019-03-16T14:43:44.451Z,6.20
2019-03-16T14:46:15.254Z,6.30
2019-03-16T14:48:46.389Z,6.20
2019-03-16T14:51:17.433Z,6.20
2019-03-16T14:53:48.266Z,6.20
2019-03-16T14:56:19.812Z,6.20
2019-03-16T14:58:50.625Z,6.30
2019-03-16T15:01:22.989Z,6.40
2019-03-16T15:03:53.675Z,6.20
2019-03-16T15:06:24.472Z,6.30
2019-03-16T15:08:55.191Z,6.30
2019-03-16T15:11:25.841Z,6.40
2019-03-16T15:13:56.584Z,6.30
2019-03-16T15:16:27.679Z,6.20
2019-03-16T15:18:59.660Z,6.10
2019-03-16T15:21:31.241Z,6.30
2019-03-16T15:24:02.874Z,6.20
2019-03-16T15:26:33.576Z,6.20
2019-03-16T15:29:04.266Z,6.20
2019-03-16T15:31:35.733Z,6.30
2019-03-16T15:34:06.841Z,6.10
2019-03-16T15:36:40.971Z,6.00
2019-03-16T15:39:11.460Z,6.10
2019-03-16T15:41:42.221Z,6.10
2019-03-16T15:44:13.037Z,6.20
2019-03-16T15:46:43.967Z,6.10
2019-03-16T15:49:14.777Z,6.10
2019-03-16T15:51:45.661Z,6.00
2019-03-16T15:54:16.375Z,5.90
2019-03-16T15:56:47.532Z,6.00
2019-03-16T15:59:18.273Z,6.00
2019-03-16T16:01:49.003Z,5.90
2019-03-16T16:04:20.964Z,5.80
2019-03-16T16:06:51.785Z,5.90
2019-03-16T16:09:23.068Z,5.80
2019-03-16T16:11:53.825Z,5.90
2019-03-16T16:14:25.173Z,5.80
2019-03-16T16:16:55.906Z,5.80
2019-03-16T16:19:27.503Z,5.80
2019-03-16T16:21:58.329Z,5.70
2019-03-16T16:24:29.130Z,5.70
2019-03-16T16:27:00.722Z,5.70
2019-03-16T16:29:31.395Z,5.70
2019-03-16T16:32:04.496Z,5.80
2019-03-16T16:34:35.531Z,5.80
2019-03-16T16:37:06.215Z,5.90
2019-03-16T16:39:37.185Z,5.90
2019-03-16T16:42:08.016Z,5.80
2019-03-16T16:44:42.421Z,5.70
2019-03-16T16:47:13.224Z,5.70
2019-03-16T16:49:44.002Z,5.60
2019-03-16T16:52:14.766Z,5.70
2019-03-16T16:54:45.520Z,5.70
2019-03-16T16:57:16.290Z,5.80
2019-03-16T16:59:47.103Z,5.80
2019-03-16T17:02:18.874Z,5.80
2019-03-16T17:04:49.472Z,5.70
2019-03-16T17:07:21.067Z,5.70
2019-03-16T17:09:52.979Z,5.70
2019-03-16T17:12:24.369Z,5.70
2019-03-16T17:14:58.617Z,5.70
2019-03-16T17:17:35.180Z,5.90
2019-03-16T17:20:02.181Z,5.80
2019-03-16T17:22:32.897Z,5.80
2019-03-16T17:25:03.667Z,5.80
2019-03-16T17:27:34.354Z,5.90
2019-03-16T17:30:05.888Z,5.70
2019-03-16T17:32:36.923Z,5.90
2019-03-16T17:35:07.919Z,5.80
2019-03-16T17:37:38.756Z,5.80
2019-03-16T17:40:11.613Z,5.80
2019-03-16T17:42:42.826Z,5.80
2019-03-16T17:45:15.523Z,5.80
2019-03-16T17:47:46.316Z,5.80
2019-03-16T17:50:17.754Z,6.00
2019-03-16T17:52:48.965Z,6.00
2019-03-16T17:55:21.632Z,5.90
2019-03-16T17:57:54.383Z,5.80
2019-03-16T18:00:38.972Z,5.70
2019-03-16T18:03:14.070Z,5.70
2019-03-16T18:05:43.580Z,5.70
2019-03-16T18:08:15.607Z,5.80
2019-03-16T18:10:46.375Z,6.00
2019-03-16T18:13:17.129Z,6.00
2019-03-16T18:15:48.804Z,6.00
2019-03-16T18:18:21.689Z,6.00
2019-03-16T18:21:01.093Z,6.00
2019-03-16T18:23:32.597Z,6.00
2019-03-16T18:26:03.415Z,6.00
2019-03-16T18:28:34.321Z,6.10
2019-03-16T18:31:04.955Z,6.10
2019-03-16T18:33:36.442Z,6.10
2019-03-16T18:36:07.123Z,6.10
2019-03-16T18:38:38.367Z,6.10
2019-03-16T18:41:09.514Z,6.10
2019-03-16T18:43:40.374Z,6.10
2019-03-16T18:46:11.008Z,6.10
2019-03-16T18:48:43.815Z,6.20
2019-03-16T18:51:14.796Z,6.20
2019-03-16T18:53:45.757Z,6.20
2019-03-16T18:56:16.501Z,6.30
2019-03-16T18:58:47.310Z,6.30
2019-03-16T19:01:18.267Z,6.30
2019-03-16T19:03:48.975Z,6.40
2019-03-16T19:06:20.584Z,6.30
2019-03-16T19:08:51.441Z,6.30
2019-03-16T19:11:22.160Z,6.30
2019-03-16T19:13:52.831Z,6.40
2019-03-16T19:16:24.286Z,6.40
2019-03-16T19:18:55.030Z,6.40
2019-03-16T19:21:25.758Z,6.40
2019-03-16T19:23:59.664Z,6.40
2019-03-16T19:26:30.462Z,6.50
2019-03-16T19:29:02.241Z,6.50
2019-03-16T19:31:47.512Z,6.50
2019-03-16T19:34:19.484Z,6.50
2019-03-16T19:36:51.766Z,6.60
2019-03-16T19:39:24.970Z,6.70
2019-03-16T19:41:57.216Z,6.70
2019-03-16T19:44:27.927Z,6.80
2019-03-16T19:46:58.839Z,6.80
2019-03-16T19:49:29.919Z,6.80
2019-03-16T19:52:00.639Z,6.80
2019-03-16T19:54:31.534Z,6.80
2019-03-16T19:57:14.996Z,6.90
2019-03-16T19:59:34.925Z,6.90
2019-03-16T20:02:06.926Z,6.90
2019-03-16T20:04:37.866Z,6.90
2019-03-16T20:07:18.694Z,7.10
2019-03-16T20:09:44.133Z,7.00
2019-03-16T20:12:14.791Z,7.10
2019-03-16T20:14:46.077Z,7.10
2019-03-16T20:17:16.714Z,7.10
2019-03-16T20:19:51.417Z,7.10
2019-03-16T20:22:23.053Z,7.10
2019-03-16T20:24:53.803Z,7.10
2019-03-16T20:27:24.743Z,7.20
2019-03-16T20:30:03.100Z,7.20
2019-03-16T20:32:34.160Z,7.20
2019-03-16T20:35:05.066Z,7.20
2019-03-16T20:37:35.749Z,7.30
2019-03-16T20:40:08.400Z,7.30
2019-03-16T20:42:48.140Z,7.40
2019-03-16T20:45:22.009Z,7.40
2019-03-16T20:47:54.548Z,7.40
2019-03-16T20:50:29.306Z,7.50
2019-03-16T20:53:02.577Z,7.60
2019-03-16T20:55:41.796Z,7.60
2019-03-16T20:58:23.689Z,7.60
2019-03-16T21:00:58.404Z,7.70
2019-03-16T21:03:31.770Z,7.80
2019-03-16T21:06:03.800Z,7.80
2019-03-16T21:08:35.861Z,7.80
2019-03-16T21:11:08.134Z,7.80
2019-03-16T21:13:39.814Z,7.90
2019-03-16T21:16:10.705Z,8.00
2019-03-16T21:18:47.600Z,8.00
2019-03-16T21:21:19.530Z,8.10
2019-03-16T21:23:51.132Z,8.10
2019-03-16T21:26:23.477Z,8.10
2019-03-16T21:28:55.804Z,8.20
2019-03-16T21:31:28.401Z,8.20
2019-03-16T21:34:00.371Z,8.30
2019-03-16T21:36:40.938Z,8.20
2019-03-16T21:39:07.883Z,8.20
2019-03-16T21:41:39.578Z,8.30
2019-03-16T21:44:11.672Z,8.30
2019-03-16T21:46:44.870Z,8.30
2019-03-16T21:49:17.735Z,8.30
2019-03-16T21:51:49.694Z,8.30
2019-03-16T21:54:31.022Z,8.40
2019-03-16T21:57:10.065Z,8.30
2019-03-16T21:59:40.981Z,8.30
2019-03-16T22:02:11.810Z,8.30
2019-03-16T22:04:43.235Z,8.40
2019-03-16T22:07:13.843Z,8.60
2019-03-16T22:09:45.253Z,8.50
2019-03-16T22:12:15.933Z,8.50
2019-03-16T22:14:47.031Z,8.50
2019-03-16T22:17:17.665Z,8.50
2019-03-16T22:19:48.763Z,8.40
2019-03-16T22:22:20.059Z,8.60
2019-03-16T22:24:52.754Z,8.50
2019-03-16T22:27:23.455Z,8.50
2019-03-16T22:29:54.099Z,8.60
2019-03-16T22:32:24.839Z,8.60
2019-03-16T22:34:55.483Z,8.60
2019-03-16T22:37:26.391Z,8.50
2019-03-16T22:39:57.824Z,8.50
2019-03-16T22:42:28.845Z,8.50
2019-03-16T22:44:59.724Z,8.50
2019-03-16T22:47:30.533Z,8.50
2019-03-16T22:50:01.326Z,8.60
2019-03-16T22:52:32.194Z,8.60
2019-03-16T22:55:02.920Z,8.60
2019-03-16T22:57:34.217Z,8.60
2019-03-16T23:00:06.488Z,8.60
2019-03-16T23:02:37.143Z,8.60
2019-03-16T23:05:09.538Z,8.60
2019-03-16T23:07:40.246Z,8.50
2019-03-16T23:10:13.227Z,8.50
2019-03-16T23:12:45.664Z,8.50
2019-03-16T23:15:17.120Z,8.50
2019-03-16T23:17:48.310Z,8.50
2019-03-16T23:20:19.007Z,8.50
2019-03-16T23:22:50.223Z,8.50
2019-03-16T23:25:21.543Z,8.50
2019-03-16T23:27:53.073Z,8.50
2019-03-16T23:30:24.969Z,8.50
2019-03-16T23:32:55.660Z,8.50
2019-03-16T23:35:27.483Z,8.50
2019-03-16T23:37:58.696Z,8.50
2019-03-16T23:40:29.343Z,8.50
2019-03-16T23:42:59.971Z,8.50
2019-03-16T23:45:30.616Z,8.50
2019-03-16T23:48:01.912Z,8.50
2019-03-16T23:50:32.556Z,8.40
2019-03-16T23:53:03.276Z,8.50
2019-03-16T23:55:33.939Z,8.40
2019-03-16T23:58:04.599Z,8.50
